Narrows, Kentucky
Current Conditions -  °F | °C
As of 4:56 PM on Saturday 25 Oct 2014 (Local Time) from KOWB Reporting Station
Clear Clear  
Wind Chill: 77°   Ceiling: Unl
Heat Index: 79°   Visibility: 10mi
Dew Point: 60°   Wind: 7mph
Humidity: 55%   Direction: 280°W
Pressure: 29.98"   Gusts: NA
Location:  37.4986°N, 86.9275°W
Report Text: KOWB 252156Z 28006KT 10SM CLR 25/16 A2998 RMK AO2 T02500155 SLP150
Loading
Personal Weather Stations






























Interactive Weather Map
Tropical Storm Tracking
New forecast layout! Learn more

10-Day Weather Forecast

Advertisements
Track Severe Weather on mobile